createdAt,value
2023-03-22T00:02:39.747Z,100004.09
2023-03-22T00:05:23.880Z,99996.63
2023-03-22T00:08:08.577Z,99969.44
2023-03-22T00:10:54.003Z,100005.81
2023-03-22T00:13:38.591Z,99989.84
2023-03-22T00:16:23.359Z,99967.59
2023-03-22T00:19:07.320Z,99999.69
2023-03-22T00:21:51.756Z,99988.59
2023-03-22T00:24:36.178Z,99959.50
2023-03-22T00:27:21.681Z,99956.59
2023-03-22T00:30:06.886Z,99988.34
2023-03-22T00:32:50.814Z,99987.72
2023-03-22T00:35:35.016Z,99952.19
2023-03-22T00:38:19.729Z,99955.88
2023-03-22T00:41:09.693Z,99955.41
2023-03-22T00:43:55.487Z,99945.44
2023-03-22T00:46:40.459Z,99979.41
2023-03-22T00:49:25.643Z,99958.31
2023-03-22T00:52:09.671Z,99950.97
2023-03-22T00:54:54.404Z,99960.16
2023-03-22T00:57:38.381Z,99876.38
2023-03-22T01:00:24.455Z,99901.78
2023-03-22T01:03:08.803Z,99900.56
2023-03-22T01:05:55.625Z,99958.75
2023-03-22T01:08:39.696Z,99908.31
2023-03-22T01:11:23.782Z,99938.25
2023-03-22T01:14:09.852Z,99956.25
2023-03-22T01:16:57.665Z,99930.63
2023-03-22T01:19:41.786Z,99920.53
2023-03-22T01:22:25.685Z,99922.59
2023-03-22T01:25:11.656Z,99917.78
2023-03-22T01:27:55.502Z,99931.44
2023-03-22T01:30:41.150Z,99907.72
2023-03-22T01:33:27.066Z,99907.19
2023-03-22T01:36:11.997Z,99939.97
2023-03-22T01:38:56.037Z,99959.03
2023-03-22T01:41:40.725Z,99951.66
2023-03-22T01:44:32.165Z,99962.13
2023-03-22T01:47:18.316Z,99916.84
2023-03-22T01:50:04.290Z,99914.75
2023-03-22T01:52:49.711Z,99949.25
2023-03-22T01:55:39.818Z,99960.25
2023-03-22T01:58:40.895Z,99937.44
2023-03-22T02:01:27.385Z,99928.94
2023-03-22T02:04:14.057Z,99974.63
2023-03-22T02:07:00.479Z,99972.25
2023-03-22T02:09:47.588Z,99944.63
2023-03-22T02:12:42.127Z,99927.47
2023-03-22T02:15:47.136Z,99933.06
2023-03-22T02:19:20.887Z,99952.63
2023-03-22T02:22:40.490Z,99925.19
2023-03-22T02:26:05.681Z,99970.44
2023-03-22T02:28:53.880Z,99978.81
2023-03-22T02:31:51.843Z,99970.97
2023-03-22T02:35:14.622Z,99977.56
2023-03-22T02:38:38.005Z,99983.25
2023-03-22T02:41:33.523Z,99982.91
2023-03-22T02:44:26.702Z,99903.84
2023-03-22T02:47:21.552Z,99954.69
2023-03-22T02:50:11.455Z,99944.63
2023-03-22T02:53:01.948Z,99981.69
2023-03-22T02:55:49.558Z,99982.84
2023-03-22T02:58:38.316Z,99985.00
2023-03-22T03:01:26.177Z,99976.72
2023-03-22T03:04:15.541Z,99948.94
2023-03-22T03:07:03.972Z,99979.97
2023-03-22T03:09:50.877Z,99979.56
2023-03-22T03:12:34.839Z,99975.00
2023-03-22T03:15:23.816Z,99967.09
2023-03-22T03:18:26.817Z,99955.00
2023-03-22T03:21:21.495Z,99974.91
2023-03-22T03:24:22.124Z,99963.63
2023-03-22T03:27:14.356Z,99967.25
2023-03-22T03:30:04.341Z,99998.81
2023-03-22T03:32:55.381Z,99930.34
2023-03-22T03:35:42.536Z,99973.91
2023-03-22T03:38:32.827Z,99932.66
2023-03-22T03:41:19.907Z,99959.19
2023-03-22T03:44:08.100Z,99995.88
2023-03-22T03:46:56.434Z,99948.72
2023-03-22T03:49:42.227Z,100001.81
2023-03-22T03:52:27.249Z,99993.28
2023-03-22T03:55:11.606Z,100005.56
2023-03-22T03:57:56.020Z,99977.47
2023-03-22T04:00:40.304Z,99961.53
2023-03-22T04:03:43.847Z,99973.00
2023-03-22T04:06:47.725Z,100012.09
2023-03-22T04:09:37.426Z,99972.84
2023-03-22T04:12:47.531Z,99983.06
2023-03-22T04:15:34.417Z,99954.09
2023-03-22T04:18:22.338Z,99983.84
2023-03-22T04:21:06.909Z,100027.75
2023-03-22T04:24:02.204Z,100024.63
2023-03-22T04:26:52.527Z,99981.19
2023-03-22T04:29:55.995Z,99983.28
2023-03-22T04:33:07.169Z,100028.53
2023-03-22T04:36:16.138Z,100034.72
2023-03-22T04:39:28.276Z,100023.78
2023-03-22T04:42:48.077Z,99973.16
2023-03-22T04:45:42.239Z,99984.88
2023-03-22T04:48:28.257Z,99987.88
2023-03-22T04:51:13.522Z,99997.03
2023-03-22T04:54:07.297Z,99996.34
2023-03-22T04:56:53.118Z,99998.25
2023-03-22T04:59:39.732Z,99988.16
2023-03-22T05:02:23.805Z,100034.53
2023-03-22T05:05:08.784Z,99999.06
2023-03-22T05:07:57.121Z,100039.72
2023-03-22T05:10:42.327Z,99993.84
2023-03-22T05:13:28.937Z,100041.38
2023-03-22T05:16:13.480Z,99979.69
2023-03-22T05:19:13.866Z,100039.19
2023-03-22T05:22:02.253Z,100008.28
2023-03-22T05:25:03.003Z,100045.81
2023-03-22T05:27:50.325Z,100044.84
2023-03-22T05:31:00.428Z,100041.84
2023-03-22T05:33:53.277Z,100027.31
2023-03-22T05:36:40.039Z,100026.16
2023-03-22T05:39:42.337Z,100019.31
2023-03-22T05:42:26.426Z,99987.09
2023-03-22T05:45:12.044Z,99989.09
2023-03-22T05:47:58.734Z,100017.91
2023-03-22T05:50:44.606Z,100058.88
2023-03-22T05:53:28.942Z,100018.25
2023-03-22T05:56:17.538Z,100053.84
2023-03-22T05:59:04.466Z,100003.22
2023-03-22T06:01:49.750Z,100055.56
2023-03-22T06:04:41.789Z,99971.56
2023-03-22T06:07:30.591Z,100064.56
2023-03-22T06:10:26.960Z,100024.84
2023-03-22T06:13:11.226Z,100028.06
2023-03-22T06:15:55.594Z,100031.03
2023-03-22T06:18:42.504Z,100068.16
2023-03-22T06:21:30.518Z,100053.59
2023-03-22T06:24:14.539Z,100068.50
2023-03-22T06:26:58.627Z,100031.16
2023-03-22T06:29:43.073Z,100025.75
2023-03-22T06:32:27.322Z,100071.28
2023-03-22T06:35:12.898Z,100074.91
2023-03-22T06:37:58.509Z,100080.19
2023-03-22T06:40:43.064Z,100039.41
2023-03-22T06:43:27.103Z,100081.91
2023-03-22T06:46:18.510Z,100072.63
2023-03-22T06:49:11.941Z,100080.75
2023-03-22T06:51:56.084Z,100095.75
2023-03-22T06:54:41.995Z,100066.72
2023-03-22T06:57:27.299Z,100098.69
2023-03-22T07:00:12.932Z,100091.47
2023-03-22T07:02:57.074Z,100091.25
2023-03-22T07:05:48.481Z,100089.28
2023-03-22T07:08:32.612Z,100096.22
2023-03-22T07:11:18.141Z,100099.66
2023-03-22T07:14:09.782Z,100055.41
2023-03-22T07:17:19.764Z,100110.78
2023-03-22T07:20:04.967Z,100116.78
2023-03-22T07:22:52.837Z,100115.69
2023-03-22T07:25:39.232Z,100081.84
2023-03-22T07:28:50.977Z,100084.53
2023-03-22T07:31:38.138Z,100092.41
2023-03-22T07:34:26.535Z,100113.84
2023-03-22T07:37:22.709Z,100068.97
2023-03-22T07:40:07.983Z,100065.94
2023-03-22T07:42:55.771Z,100133.63
2023-03-22T07:46:07.065Z,100135.25
2023-03-22T07:49:07.750Z,100137.41
2023-03-22T07:52:11.796Z,100141.66
2023-03-22T07:54:55.842Z,100105.91
2023-03-22T07:57:40.932Z,100140.72
2023-03-22T08:00:27.184Z,100091.22
2023-03-22T08:03:35.417Z,100115.03
2023-03-22T08:06:32.868Z,100092.63
2023-03-22T08:09:17.692Z,100136.09
2023-03-22T08:12:01.717Z,100150.59
2023-03-22T08:14:50.594Z,100144.25
2023-03-22T08:17:39.045Z,100121.44
2023-03-22T08:20:29.323Z,100141.34
2023-03-22T08:23:17.817Z,100138.25
2023-03-22T08:26:13.453Z,100146.53
2023-03-22T08:28:57.815Z,100108.13
2023-03-22T08:31:41.908Z,100090.63
2023-03-22T08:34:27.601Z,100157.50
2023-03-22T08:37:13.923Z,100133.06
2023-03-22T08:40:01.199Z,100119.69
2023-03-22T08:42:55.872Z,100151.56
2023-03-22T08:45:40.305Z,100123.16
2023-03-22T08:48:32.511Z,100155.03
2023-03-22T08:51:26.080Z,100124.25
2023-03-22T08:54:21.561Z,100159.47
2023-03-22T08:57:22.200Z,100139.41
2023-03-22T09:00:32.010Z,100183.69
2023-03-22T09:03:42.522Z,100147.00
2023-03-22T09:06:27.520Z,100190.69
2023-03-22T09:09:11.746Z,100184.75
2023-03-22T09:11:58.344Z,100158.47
2023-03-22T09:14:42.279Z,100189.94
2023-03-22T09:17:26.692Z,100171.34
2023-03-22T09:20:13.119Z,100193.53
2023-03-22T09:23:00.030Z,100199.09
2023-03-22T09:25:45.784Z,100207.59
2023-03-22T09:28:32.546Z,100215.13
2023-03-22T09:31:20.800Z,100207.50
2023-03-22T09:34:12.393Z,100214.84
2023-03-22T09:36:58.721Z,100217.38
2023-03-22T09:39:47.560Z,100210.88
2023-03-22T09:42:38.788Z,100222.88
2023-03-22T09:45:38.379Z,100214.09
2023-03-22T09:48:28.805Z,100220.47
2023-03-22T09:51:25.172Z,100223.78
2023-03-22T09:54:16.017Z,100219.78
2023-03-22T09:57:03.612Z,100223.75
2023-03-22T09:59:57.170Z,100228.44
2023-03-22T10:02:52.379Z,100193.63
2023-03-22T10:05:42.730Z,100172.13
2023-03-22T10:08:51.539Z,100229.53
2023-03-22T10:11:45.823Z,100230.53
2023-03-22T10:14:36.914Z,100231.09
2023-03-22T10:17:27.340Z,100193.47
2023-03-22T10:20:25.070Z,100190.94
2023-03-22T10:23:15.967Z,100229.22
2023-03-22T10:26:03.853Z,100241.09
2023-03-22T10:28:54.462Z,100232.09
2023-03-22T10:31:41.118Z,100235.44
2023-03-22T10:34:31.176Z,100196.19
2023-03-22T10:37:19.586Z,100188.84
2023-03-22T10:40:07.950Z,100231.56
2023-03-22T10:42:56.820Z,100228.28
2023-03-22T10:45:41.580Z,100202.03
2023-03-22T10:48:30.323Z,100189.63
2023-03-22T10:51:22.545Z,100191.50
2023-03-22T10:54:14.787Z,100237.34
2023-03-22T10:56:58.726Z,100194.16
2023-03-22T10:59:48.666Z,100229.63
2023-03-22T11:02:34.050Z,100186.13
2023-03-22T11:05:24.378Z,100191.22
2023-03-22T11:08:08.324Z,100189.00
2023-03-22T11:10:55.433Z,100189.69
2023-03-22T11:13:39.783Z,100192.38
2023-03-22T11:16:25.032Z,100184.44
2023-03-22T11:19:16.466Z,100180.69
2023-03-22T11:22:01.407Z,100178.84
2023-03-22T11:24:48.814Z,100216.84
2023-03-22T11:27:36.614Z,100211.41
2023-03-22T11:30:23.913Z,100180.53
2023-03-22T11:33:18.925Z,100199.25
2023-03-22T11:36:04.964Z,100192.34
2023-03-22T11:38:49.087Z,100171.41
2023-03-22T11:41:37.242Z,100206.16
2023-03-22T11:44:24.329Z,100199.34
2023-03-22T11:47:11.767Z,100143.53
2023-03-22T11:49:57.322Z,100162.53
2023-03-22T11:52:41.494Z,100158.47
2023-03-22T11:55:26.548Z,100194.28
2023-03-22T11:58:26.289Z,100184.28
2023-03-22T12:01:17.623Z,100169.56
2023-03-22T12:04:06.563Z,100166.91
2023-03-22T12:06:54.056Z,100192.53
2023-03-22T12:09:42.804Z,100184.75
2023-03-22T12:12:31.476Z,100120.41
2023-03-22T12:15:21.242Z,100178.09
2023-03-22T12:18:10.241Z,100137.72
2023-03-22T12:20:57.673Z,100144.88
2023-03-22T12:23:41.897Z,100145.75
2023-03-22T12:26:29.405Z,100128.06
2023-03-22T12:29:18.331Z,100180.44
2023-03-22T12:32:07.202Z,100173.53
2023-03-22T12:35:01.325Z,100139.59
2023-03-22T12:37:57.032Z,100170.06
2023-03-22T12:40:42.951Z,100094.06
2023-03-22T12:43:43.650Z,100121.09
2023-03-22T12:46:30.848Z,100138.41
2023-03-22T12:49:23.444Z,100171.41
2023-03-22T12:52:16.415Z,100162.63
2023-03-22T12:55:02.029Z,100141.16
2023-03-22T12:57:51.380Z,100103.25
2023-03-22T13:00:42.268Z,100139.75
2023-03-22T13:03:29.883Z,100136.91
2023-03-22T13:06:33.793Z,100171.56
2023-03-22T13:09:21.093Z,100159.16
2023-03-22T13:12:30.439Z,100163.97
2023-03-22T13:15:42.486Z,100162.44
2023-03-22T13:18:42.562Z,100161.53
2023-03-22T13:21:29.533Z,100164.19
2023-03-22T13:24:25.362Z,100148.75
2023-03-22T13:27:12.153Z,100126.13
2023-03-22T13:29:58.062Z,100122.97
2023-03-22T13:32:52.561Z,100118.53
2023-03-22T13:35:44.920Z,100108.38
2023-03-22T13:38:32.079Z,100115.72
2023-03-22T13:41:24.027Z,100151.72
2023-03-22T13:44:26.095Z,100149.78
2023-03-22T13:47:30.080Z,100112.28
2023-03-22T13:50:19.995Z,100112.75
2023-03-22T13:53:07.048Z,100110.19
2023-03-22T13:56:03.544Z,100109.38
2023-03-22T13:58:54.723Z,100138.22
2023-03-22T14:01:47.741Z,100148.88
2023-03-22T14:04:38.449Z,100113.47
2023-03-22T14:07:26.918Z,100112.53
2023-03-22T14:10:17.741Z,100115.91
2023-03-22T14:13:07.224Z,100137.03
2023-03-22T14:15:55.313Z,100143.66
2023-03-22T14:18:44.562Z,100089.63
2023-03-22T14:21:35.873Z,100121.66
